Time;durP1;ratioP1;P1;durP2;ratioP2;P2;SDS_P1;SDS_P2;PMS_P1;PMS_P2;Temp;Humidity;BMP_temperature;BMP_pressure;BME280_temperature;BME280_humidity;BME280_pressure;Samples;Min_cycle;Max_cycle;Signal;HPM_P1;HPM_P2
2022/11/17 00:01:48;;;;;;;19.33;13.57;;;13.30;95.90;;;;;;5003196;28;20041;-86
2022/11/17 00:04:13;;;;;;;17.40;12.23;;;13.30;95.90;;;;;;5032677;28;20449;-87
2022/11/17 00:06:39;;;;;;;19.15;12.23;;;13.30;95.90;;;;;;5032214;28;20029;-88
2022/11/17 00:09:05;;;;;;;16.90;12.13;;;13.40;96.00;;;;;;5015053;28;20025;-88
2022/11/17 00:14:31;;;;;;;16.60;12.10;;;13.40;95.90;;;;;;5031988;28;20457;-87
2022/11/17 00:14:31;;;;;;;20.15;13.20;;;13.50;95.80;;;;;;5032755;28;20052;-87
2022/11/17 00:16:57;;;;;;;19.67;12.65;;;13.50;95.60;;;;;;5032420;28;20026;-88
2022/11/17 00:22:07;;;;;;;20.27;12.68;;;13.50;95.70;;;;;;5033073;28;20080;-89
2022/11/17 00:24:33;;;;;;;18.05;12.73;;;13.50;95.60;;;;;;5033233;28;20022;-88
2022/11/17 00:27:01;;;;;;;18.08;12.55;;;13.40;95.60;;;;;;5032723;28;20087;-88
2022/11/17 00:29:28;;;;;;;16.88;11.60;;;13.40;95.60;;;;;;5034101;28;20080;-89
2022/11/17 00:34:38;;;;;;;16.75;11.55;;;13.40;95.80;;;;;;5037126;28;20045;-89
2022/11/17 00:37:05;;;;;;;15.93;11.25;;;13.40;95.80;;;;;;5036516;28;20029;-89
2022/11/17 00:39:31;;;;;;;18.67;12.00;;;13.40;95.80;;;;;;5035627;28;20017;-89
2022/11/17 00:41:57;;;;;;;24.13;15.55;;;13.40;95.80;;;;;;5020492;28;20037;-90
2022/11/17 00:44:24;;;;;;;19.85;13.27;;;13.40;95.70;;;;;;5035765;28;20096;-90
2022/11/17 00:46:49;;;;;;;19.58;13.43;;;13.40;95.70;;;;;;5034879;28;20473;-89
2022/11/17 00:49:15;;;;;;;16.92;11.95;;;13.40;95.60;;;;;;5035032;28;20064;-89
2022/11/17 00:51:41;;;;;;;21.98;13.90;;;13.40;95.70;;;;;;5034867;28;20448;-89
2022/11/17 00:54:10;;;;;;;19.23;12.57;;;13.30;95.70;;;;;;5035210;28;20100;-88
2022/11/17 00:56:36;;;;;;;18.00;13.40;;;13.30;95.70;;;;;;5017379;28;20038;-89
2022/11/17 00:59:02;;;;;;;15.65;11.27;;;13.30;95.70;;;;;;5035614;28;20041;-90
2022/11/17 01:01:28;;;;;;;17.98;12.27;;;13.20;95.80;;;;;;5035600;28;20033;-89
2022/11/17 01:04:01;;;;;;;19.27;12.70;;;13.20;95.80;;;;;;5014830;28;20033;-90
2022/11/17 01:06:32;;;;;;;17.70;12.57;;;13.30;95.80;;;;;;5016132;28;20697;-90
2022/11/17 01:09:03;;;;;;;20.88;12.50;;;13.30;95.80;;;;;;5035105;28;20104;-88
2022/11/17 01:11:29;;;;;;;18.20;12.15;;;13.30;95.80;;;;;;5034837;28;20310;-89
2022/11/17 01:13:57;;;;;;;18.95;12.15;;;13.20;95.80;;;;;;5034435;28;20048;-88
2022/11/17 01:16:23;;;;;;;19.20;12.60;;;13.30;95.80;;;;;;5041419;28;20021;-86
2022/11/17 01:18:50;;;;;;;19.48;12.80;;;13.30;95.80;;;;;;5033718;28;20128;-87
2022/11/17 01:21:19;;;;;;;20.85;13.07;;;13.30;95.80;;;;;;5035368;28;20095;-87
2022/11/17 01:23:46;;;;;;;18.40;13.45;;;13.30;95.80;;;;;;5034275;28;20458;-82
2022/11/17 01:26:17;;;;;;;21.95;13.88;;;13.30;95.80;;;;;;5035625;28;20482;-82
2022/11/17 01:28:43;;;;;;;19.00;13.10;;;13.40;95.80;;;;;;5033816;28;20041;-83
2022/11/17 01:31:11;;;;;;;17.15;12.88;;;13.40;95.70;;;;;;5017492;28;20044;-82
2022/11/17 01:33:37;;;;;;;17.17;11.85;;;13.50;95.60;;;;;;5033063;28;20049;-82
2022/11/17 01:36:06;;;;;;;21.48;14.02;;;13.50;95.50;;;;;;5026249;28;20431;-81
2022/11/17 01:38:32;;;;;;;19.83;13.73;;;13.50;95.50;;;;;;5035154;28;20033;-83
2022/11/17 01:41:00;;;;;;;19.10;12.88;;;13.50;95.40;;;;;;5033681;28;20029;-82
2022/11/17 01:43:43;;;;;;;19.48;13.63;;;13.50;95.40;;;;;;5017534;28;20045;-82
2022/11/17 01:46:18;;;;;;;19.35;13.25;;;13.40;95.40;;;;;;5026891;28;20037;-83
2022/11/17 01:48:44;;;;;;;18.10;12.80;;;13.40;95.40;;;;;;5016507;28;20510;-81
2022/11/17 01:51:13;;;;;;;20.25;13.55;;;13.30;95.50;;;;;;5033422;28;20033;-81
2022/11/17 01:53:41;;;;;;;20.52;13.35;;;13.30;95.60;;;;;;5034518;28;20164;-80
2022/11/17 01:56:10;;;;;;;19.40;13.38;;;13.30;95.60;;;;;;5033381;28;20524;-80
2022/11/17 01:58:42;;;;;;;20.50;13.43;;;13.30;95.60;;;;;;5034533;28;20037;-80
2022/11/17 02:01:08;;;;;;;20.92;12.95;;;13.30;95.60;;;;;;5033513;28;20041;-81
2022/11/17 02:03:35;;;;;;;23.00;16.20;;;13.30;95.70;;;;;;5034255;28;20044;-82
2022/11/17 02:06:10;;;;;;;18.77;13.00;;;13.20;95.60;;;;;;5033573;28;20029;-82
2022/11/17 02:08:38;;;;;;;22.15;14.15;;;13.20;95.70;;;;;;5033720;28;20053;-83
2022/11/17 02:11:11;;;;;;;18.80;13.30;;;13.20;95.70;;;;;;5034531;28;20030;-84
2022/11/17 02:13:38;;;;;;;21.35;15.30;;;13.20;95.80;;;;;;5032515;28;20037;-83
2022/11/17 02:16:09;;;;;;;24.70;16.48;;;13.20;95.70;;;;;;5017085;28;20075;-84
2022/11/17 02:18:35;;;;;;;19.65;14.07;;;13.10;95.70;;;;;;5016105;28;20557;-83
2022/11/17 02:21:09;;;;;;;20.23;13.63;;;13.10;95.80;;;;;;5034298;28;20104;-84
2022/11/17 02:24:08;;;;;;;22.75;14.60;;;13.10;95.80;;;;;;5033513;28;20350;-85
2022/11/17 02:26:53;;;;;;;22.33;13.63;;;13.10;95.80;;;;;;5034532;28;20036;-85
2022/11/17 02:29:34;;;;;;;20.90;13.95;;;13.20;95.80;;;;;;5033320;28;20065;-85
2022/11/17 02:32:19;;;;;;;19.55;13.27;;;13.20;95.70;;;;;;5035025;28;20034;-85
2022/11/17 02:34:53;;;;;;;20.95;13.43;;;13.10;95.70;;;;;;5035908;28;20104;-87
2022/11/17 02:37:46;;;;;;;18.13;12.60;;;13.10;95.80;;;;;;5034919;28;20034;-88
2022/11/17 02:40:40;;;;;;;19.40;13.43;;;13.10;95.80;;;;;;5034202;28;20104;-88
2022/11/17 02:46:10;;;;;;;19.30;13.45;;;13.10;95.90;;;;;;5034664;28;20052;-89
2022/11/17 02:48:45;;;;;;;19.77;14.48;;;13.10;95.80;;;;;;5034572;28;20029;-89
2022/11/17 02:51:19;;;;;;;21.83;14.45;;;13.00;95.90;;;;;;5016312;28;20033;-89
2022/11/17 02:53:45;;;;;;;20.45;15.25;;;13.10;95.90;;;;;;5032941;28;20473;-89
2022/11/17 02:56:11;;;;;;;23.40;16.27;;;13.00;95.90;;;;;;5033865;28;20105;-89
2022/11/17 02:58:36;;;;;;;19.35;13.80;;;13.00;95.90;;;;;;5031348;28;20409;-89
2022/11/17 03:01:21;;;;;;;24.23;15.45;;;13.00;96.00;;;;;;5032669;28;20034;-88
2022/11/17 03:04:05;;;;;;;22.20;15.55;;;13.00;96.00;;;;;;5035375;28;20148;-89
2022/11/17 03:06:42;;;;;;;20.25;14.80;;;13.00;96.00;;;;;;5036465;28;20033;-88
2022/11/17 03:09:29;;;;;;;20.02;13.82;;;13.00;95.90;;;;;;5033826;28;20066;-87
2022/11/17 03:12:20;;;;;;;19.27;13.30;;;13.00;96.00;;;;;;5033966;28;20367;-85
2022/11/17 03:15:04;;;;;;;18.50;13.25;;;13.00;95.90;;;;;;5031964;28;20099;-84
2022/11/17 03:17:47;;;;;;;21.00;14.10;;;13.00;95.90;;;;;;5032683;28;20083;-84
2022/11/17 03:20:41;;;;;;;20.50;13.90;;;13.00;96.00;;;;;;5030078;28;20029;-86
2022/11/17 03:23:16;;;;;;;18.42;13.40;;;13.00;95.90;;;;;;5033243;28;20042;-88
2022/11/17 03:25:47;;;;;;;19.83;14.20;;;13.10;96.10;;;;;;5033368;28;20029;-88
2022/11/17 03:28:15;;;;;;;20.23;14.15;;;13.10;95.80;;;;;;5033192;28;20029;-87
2022/11/17 03:30:45;;;;;;;19.73;13.80;;;13.10;95.80;;;;;;5015774;28;20442;-87
2022/11/17 03:33:17;;;;;;;21.70;14.93;;;13.10;95.80;;;;;;5033936;28;20025;-86
2022/11/17 03:35:59;;;;;;;18.77;13.93;;;13.00;95.80;;;;;;5032791;28;20028;-85
2022/11/17 03:38:31;;;;;;;18.80;13.23;;;13.00;95.80;;;;;;5032864;28;20068;-87
2022/11/17 03:41:01;;;;;;;20.88;14.02;;;13.00;95.90;;;;;;5033274;28;20029;-86
2022/11/17 03:43:29;;;;;;;19.95;14.48;;;12.90;95.90;;;;;;5015246;28;20499;-85
2022/11/17 03:45:59;;;;;;;19.67;14.90;;;12.90;95.90;;;;;;5036038;28;20113;-85
2022/11/17 03:48:52;;;;;;;17.98;13.15;;;12.90;95.90;;;;;;5031383;28;20057;-87
2022/11/17 03:51:22;;;;;;;19.73;14.23;;;12.90;95.90;;;;;;5032550;28;20033;-89
2022/11/17 03:53:49;;;;;;;19.10;12.93;;;12.90;95.90;;;;;;5033101;28;20113;-88
2022/11/17 03:56:40;;;;;;;18.83;13.20;;;13.00;95.90;;;;;;5032424;28;20010;-86
2022/11/17 03:59:12;;;;;;;16.98;12.38;;;12.90;95.90;;;;;;5007228;28;20043;-89
2022/11/17 04:01:38;;;;;;;16.67;12.75;;;12.90;95.80;;;;;;5032468;28;20065;-88
2022/11/17 04:04:03;;;;;;;19.77;14.45;;;13.00;95.80;;;;;;5036817;28;20048;-86
2022/11/17 04:06:29;;;;;;;17.38;12.23;;;13.00;95.70;;;;;;5031669;28;20057;-85
2022/11/17 04:08:55;;;;;;;17.98;12.30;;;13.00;95.70;;;;;;5033312;28;20038;-84
2022/11/17 04:16:49;;;;;;;14.85;10.77;;;12.80;95.60;;;;;;5031887;28;20562;-82
2022/11/17 04:19:14;;;;;;;18.92;11.32;;;12.80;95.70;;;;;;5032882;28;20112;-83
2022/11/17 04:21:40;;;;;;;16.13;11.60;;;12.80;95.80;;;;;;5031348;28;20382;-82
2022/11/17 04:24:06;;;;;;;15.18;11.27;;;12.80;95.80;;;;;;5015124;28;20477;-81
2022/11/17 04:29:16;;;;;;;13.10;10.18;;;12.90;95.70;;;;;;5033594;28;20056;-83
2022/11/17 04:31:42;;;;;;;14.25;10.23;;;12.90;95.60;;;;;;5014980;28;20025;-83
2022/11/17 04:34:07;;;;;;;13.15;10.23;;;12.90;95.60;;;;;;5033252;28;20424;-83
2022/11/17 04:36:43;;;;;;;13.40;9.93;;;12.90;95.60;;;;;;5011569;28;20632;-82
2022/11/17 04:39:10;;;;;;;12.98;9.60;;;12.80;95.50;;;;;;5032670;28;20033;-82
2022/11/17 04:41:56;;;;;;;10.88;8.90;;;12.70;95.50;;;;;;5014550;28;20470;-83
2022/11/17 04:44:27;;;;;;;12.25;9.82;;;12.70;95.50;;;;;;5018539;28;20369;-84
2022/11/17 04:46:56;;;;;;;12.20;9.73;;;12.70;95.50;;;;;;5015237;28;20056;-83
2022/11/17 04:49:24;;;;;;;12.65;9.30;;;12.70;95.50;;;;;;5033748;28;20036;-84
2022/11/17 04:51:51;;;;;;;12.65;9.80;;;12.70;95.60;;;;;;5014346;28;20033;-83
2022/11/17 04:54:19;;;;;;;12.30;9.75;;;12.70;95.60;;;;;;5018137;28;20029;-83
2022/11/17 04:56:47;;;;;;;11.48;9.65;;;12.70;95.60;;;;;;5026201;28;20030;-83
2022/11/17 04:59:13;;;;;;;13.95;9.77;;;12.70;95.50;;;;;;5033557;28;20026;-81
2022/11/17 05:01:38;;;;;;;13.45;10.00;;;12.80;95.50;;;;;;5033926;28;20041;-83
2022/11/17 05:04:09;;;;;;;12.40;9.30;;;12.70;95.40;;;;;;5035064;28;20045;-82
2022/11/17 05:06:43;;;;;;;12.07;8.98;;;12.80;95.40;;;;;;5035758;28;20013;-81
2022/11/17 05:09:12;;;;;;;13.65;9.98;;;12.70;95.40;;;;;;5032623;28;20038;-81
2022/11/17 05:14:24;;;;;;;12.65;9.65;;;12.70;95.50;;;;;;5017941;28;20504;-82
2022/11/17 05:17:05;;;;;;;11.43;9.77;;;12.70;95.40;;;;;;5033404;28;20040;-81
2022/11/17 05:19:43;;;;;;;11.68;9.02;;;12.70;95.50;;;;;;5036052;28;20017;-82
2022/11/17 05:24:55;;;;;;;11.10;8.90;;;12.60;95.40;;;;;;5033754;28;20099;-84
2022/11/17 05:27:22;;;;;;;12.32;7.88;;;12.60;95.40;;;;;;5030783;28;20446;-83
2022/11/17 05:29:49;;;;;;;11.38;8.73;;;12.60;95.30;;;;;;5017506;28;20029;-84
2022/11/17 05:32:15;;;;;;;10.63;7.85;;;12.60;95.30;;;;;;5036319;28;20033;-82
2022/11/17 05:34:40;;;;;;;10.40;8.38;;;12.50;95.30;;;;;;5035394;28;20026;-81
2022/11/17 05:37:06;;;;;;;10.90;7.88;;;12.50;95.60;;;;;;5017293;28;20481;-80
2022/11/17 05:39:32;;;;;;;10.18;7.88;;;12.50;95.30;;;;;;5035691;28;20037;-82
2022/11/17 05:41:57;;;;;;;10.40;8.82;;;12.50;95.30;;;;;;5034551;28;20026;-78
2022/11/17 05:44:23;;;;;;;10.00;8.18;;;12.50;95.30;;;;;;5030879;28;20026;-79
2022/11/17 05:46:48;;;;;;;11.50;8.85;;;12.50;95.30;;;;;;5034478;28;20362;-81
2022/11/17 05:49:14;;;;;;;10.18;7.60;;;12.50;95.30;;;;;;5034668;28;20485;-80
2022/11/17 05:51:40;;;;;;;9.65;8.20;;;12.40;95.20;;;;;;5016240;28;20033;-80
2022/11/17 05:54:05;;;;;;;9.70;7.63;;;12.40;95.20;;;;;;5034398;28;20045;-87
2022/11/17 05:56:42;;;;;;;9.95;7.57;;;12.40;95.20;;;;;;5034344;28;20025;-82
2022/11/17 05:59:41;;;;;;;9.27;7.78;;;12.40;95.30;;;;;;5033773;28;20038;-83
2022/11/17 06:02:33;;;;;;;11.05;8.52;;;12.30;95.40;;;;;;5008027;28;20175;-82
2022/11/17 06:04:58;;;;;;;11.23;8.88;;;12.40;95.30;;;;;;5041146;28;20029;-81
2022/11/17 06:07:24;;;;;;;14.45;9.88;;;12.40;95.20;;;;;;5034897;28;20531;-83
2022/11/17 06:09:50;;;;;;;10.90;8.10;;;12.30;95.10;;;;;;5034802;28;20114;-83
2022/11/17 06:12:16;;;;;;;8.50;7.20;;;12.30;95.20;;;;;;5015955;28;20030;-78
2022/11/17 06:14:42;;;;;;;10.68;7.70;;;12.20;95.30;;;;;;5027576;28;20159;-80
2022/11/17 06:17:29;;;;;;;9.40;6.90;;;12.20;95.40;;;;;;5007782;28;20026;-75
2022/11/17 06:20:16;;;;;;;8.02;6.60;;;12.30;95.30;;;;;;5034479;28;20538;-82
2022/11/17 06:22:42;;;;;;;7.95;6.38;;;12.30;95.20;;;;;;5022136;28;20032;-81
2022/11/17 06:25:09;;;;;;;8.35;6.18;;;12.30;95.10;;;;;;5037113;28;20091;-80
2022/11/17 06:27:36;;;;;;;7.50;6.55;;;12.20;95.10;;;;;;5032761;28;20037;-80
2022/11/17 06:30:04;;;;;;;7.75;6.85;;;12.20;95.00;;;;;;5033590;28;20115;-82
2022/11/17 06:32:48;;;;;;;10.77;8.52;;;12.20;95.10;;;;;;5015823;28;20029;-80
2022/11/17 06:35:25;;;;;;;12.98;8.85;;;12.10;94.90;;;;;;5016321;28;20029;-80
2022/11/17 06:37:53;;;;;;;8.65;6.82;;;12.10;95.10;;;;;;5033827;28;20037;-76
2022/11/17 06:40:21;;;;;;;10.60;8.95;;;12.00;95.20;;;;;;5017334;28;20022;-79
2022/11/17 06:43:02;;;;;;;7.32;6.20;;;12.00;95.20;;;;;;5032429;28;20041;-78
2022/11/17 06:45:32;;;;;;;9.15;6.85;;;11.90;95.30;;;;;;5032264;28;20041;-79
2022/11/17 06:47:58;;;;;;;9.45;6.88;;;11.90;95.40;;;;;;5014975;28;20064;-77
2022/11/17 06:50:24;;;;;;;7.30;6.45;;;11.90;95.10;;;;;;5016277;28;20029;-79
2022/11/17 06:52:50;;;;;;;7.80;6.97;;;11.90;95.20;;;;;;5033041;28;20096;-80
2022/11/17 06:55:15;;;;;;;8.95;6.78;;;12.00;95.30;;;;;;5015147;28;20359;-82
2022/11/17 06:57:41;;;;;;;7.43;6.40;;;12.00;95.30;;;;;;5034025;28;20036;-79
2022/11/17 07:00:07;;;;;;;7.43;6.45;;;12.00;95.30;;;;;;5033573;28;20084;-82
2022/11/17 07:02:33;;;;;;;9.13;5.90;;;12.10;95.20;;;;;;5014923;28;20402;-82
2022/11/17 07:04:59;;;;;;;7.63;5.95;;;12.10;95.10;;;;;;5032409;28;20068;-83
2022/11/17 07:07:24;;;;;;;6.60;5.78;;;12.20;95.10;;;;;;5032945;28;20445;-83
2022/11/17 07:09:50;;;;;;;7.22;6.03;;;12.20;95.00;;;;;;5034025;28;20087;-83
2022/11/17 07:12:15;;;;;;;7.55;5.72;;;12.20;94.90;;;;;;5034152;28;20034;-79
2022/11/17 07:14:41;;;;;;;7.57;6.07;;;12.10;94.80;;;;;;5033911;28;20033;-80
2022/11/17 07:17:07;;;;;;;6.80;6.10;;;12.10;94.90;;;;;;5033507;28;20021;-80
2022/11/17 07:19:33;;;;;;;8.45;6.32;;;12.10;94.90;;;;;;5032774;28;20045;-80
2022/11/17 07:21:58;;;;;;;7.43;6.43;;;12.10;94.90;;;;;;5033836;28;20366;-80
2022/11/17 07:24:24;;;;;;;9.82;7.07;;;12.10;94.90;;;;;;5033706;28;20103;-80
2022/11/17 07:26:50;;;;;;;8.35;6.63;;;12.10;95.00;;;;;;5034252;28;20030;-80
2022/11/17 07:29:15;;;;;;;9.20;7.10;;;12.20;95.00;;;;;;5015858;28;20109;-80
2022/11/17 07:31:42;;;;;;;9.10;6.82;;;12.20;94.90;;;;;;5035445;28;20029;-80
2022/11/17 07:34:08;;;;;;;8.35;6.78;;;12.20;95.00;;;;;;5032208;28;20025;-84
2022/11/17 07:36:34;;;;;;;8.73;6.95;;;12.20;95.00;;;;;;5015522;28;20423;-84
2022/11/17 07:39:00;;;;;;;8.20;6.55;;;12.20;95.10;;;;;;5032781;28;20030;-84
2022/11/17 07:41:26;;;;;;;10.82;8.02;;;12.20;95.10;;;;;;5015572;28;20395;-84
2022/11/17 07:43:51;;;;;;;11.40;7.57;;;12.30;95.10;;;;;;5032268;28;20528;-81
2022/11/17 07:46:17;;;;;;;8.68;7.60;;;12.30;95.10;;;;;;5032670;28;20086;-81
2022/11/17 07:48:43;;;;;;;8.95;7.43;;;12.30;95.20;;;;;;5034069;28;20069;-80
2022/11/17 07:51:09;;;;;;;11.75;8.15;;;12.40;95.30;;;;;;5033662;28;20462;-80
2022/11/17 07:53:35;;;;;;;8.95;7.60;;;12.40;95.20;;;;;;5033077;28;20030;-80
2022/11/17 07:56:04;;;;;;;10.75;8.35;;;12.50;95.00;;;;;;5033272;28;20030;-80
2022/11/17 07:58:30;;;;;;;10.45;8.15;;;12.60;94.90;;;;;;5033345;28;20462;-80
2022/11/17 08:00:56;;;;;;;8.80;7.47;;;12.50;94.80;;;;;;5032813;28;20093;-80
2022/11/17 08:03:23;;;;;;;11.55;8.32;;;12.60;95.20;;;;;;5015344;28;21699;-84
2022/11/17 08:05:49;;;;;;;12.73;9.00;;;12.60;94.90;;;;;;5033026;28;20485;-83
2022/11/17 08:08:15;;;;;;;12.73;9.45;;;12.60;94.90;;;;;;5033457;28;20112;-84
2022/11/17 08:10:41;;;;;;;13.32;9.32;;;12.60;95.00;;;;;;5033518;28;20386;-84
2022/11/17 08:13:07;;;;;;;11.93;9.18;;;12.60;95.00;;;;;;5015607;28;20125;-84
2022/11/17 08:15:34;;;;;;;12.13;9.38;;;12.60;94.90;;;;;;5014795;28;20456;-84
2022/11/17 08:18:01;;;;;;;11.75;9.15;;;12.60;94.90;;;;;;5033076;28;20112;-84
2022/11/17 08:20:28;;;;;;;12.43;9.40;;;12.70;95.00;;;;;;5033141;28;20071;-83
2022/11/17 08:22:54;;;;;;;13.20;9.70;;;12.70;95.10;;;;;;5033010;28;20423;-84
2022/11/17 08:25:21;;;;;;;12.52;9.45;;;12.70;95.00;;;;;;5033232;28;20057;-84
2022/11/17 08:27:50;;;;;;;13.35;10.02;;;12.80;95.00;;;;;;5033196;28;20037;-84
2022/11/17 08:30:17;;;;;;;14.93;9.38;;;12.80;94.90;;;;;;5034969;28;20135;-84
2022/11/17 08:32:51;;;;;;;12.32;9.27;;;12.80;94.90;;;;;;5015132;28;20032;-84
2022/11/17 08:35:23;;;;;;;10.77;8.98;;;12.90;94.90;;;;;;5032454;28;20057;-84
2022/11/17 08:37:48;;;;;;;15.05;10.10;;;12.90;94.80;;;;;;5032345;28;20032;-83
2022/11/17 08:40:16;;;;;;;12.32;9.38;;;12.90;94.80;;;;;;5032800;28;20022;-84
2022/11/17 08:42:42;;;;;;;14.68;9.60;;;12.90;94.80;;;;;;5032673;28;20382;-84
2022/11/17 08:45:09;;;;;;;11.90;9.80;;;12.90;94.80;;;;;;5031686;28;20084;-83
2022/11/17 08:47:35;;;;;;;10.88;9.20;;;13.00;94.70;;;;;;5032172;28;20029;-84
2022/11/17 08:50:02;;;;;;;13.35;10.43;;;13.00;94.70;;;;;;5032457;28;20026;-84
2022/11/17 08:52:28;;;;;;;12.80;11.18;;;13.00;94.80;;;;;;5017747;28;20056;-83
2022/11/17 08:54:54;;;;;;;12.60;9.88;;;13.00;94.60;;;;;;5037342;28;20052;-81
2022/11/17 08:57:22;;;;;;;11.32;8.70;;;13.00;94.70;;;;;;5037102;28;20100;-81
2022/11/17 08:59:49;;;;;;;11.13;8.88;;;13.00;94.70;;;;;;5021074;28;20029;-83
2022/11/17 09:02:15;;;;;;;11.25;9.02;;;13.00;94.70;;;;;;5018573;28;20044;-81
2022/11/17 09:04:41;;;;;;;10.15;8.52;;;13.10;94.70;;;;;;5018540;28;20044;-84
2022/11/17 09:07:07;;;;;;;12.13;9.90;;;13.10;94.60;;;;;;5036070;28;20473;-83
2022/11/17 09:09:33;;;;;;;10.23;8.48;;;13.20;94.50;;;;;;5036237;28;20108;-84
2022/11/17 09:11:59;;;;;;;10.27;8.60;;;13.20;94.50;;;;;;5036614;28;20029;-81
2022/11/17 09:14:25;;;;;;;15.32;9.52;;;13.20;94.60;;;;;;5017607;28;20037;-83
2022/11/17 09:16:51;;;;;;;11.75;9.13;;;13.30;94.60;;;;;;5036624;28;20102;-86
2022/11/17 09:19:16;;;;;;;10.75;8.40;;;13.40;94.40;;;;;;5035963;28;20029;-86
2022/11/17 09:21:42;;;;;;;8.82;7.88;;;13.50;94.40;;;;;;5019090;28;20025;-86
2022/11/17 09:24:08;;;;;;;11.93;8.63;;;13.50;94.40;;;;;;5020056;28;20457;-86
2022/11/17 09:26:34;;;;;;;13.55;9.43;;;13.60;94.30;;;;;;5036432;28;20033;-87
2022/11/17 09:29:03;;;;;;;9.88;8.60;;;13.70;94.10;;;;;;5035517;28;20029;-85
2022/11/17 09:31:29;;;;;;;12.05;9.43;;;13.80;94.10;;;;;;5018197;28;20061;-86
2022/11/17 09:33:55;;;;;;;11.85;8.60;;;13.80;93.90;;;;;;5036132;28;20034;-85
2022/11/17 09:36:21;;;;;;;13.00;10.30;;;13.90;93.90;;;;;;5035883;28;20116;-85
2022/11/17 09:38:46;;;;;;;11.52;9.07;;;13.90;93.80;;;;;;5018308;28;20076;-86
2022/11/17 09:41:15;;;;;;;11.95;9.73;;;14.00;93.70;;;;;;5035991;28;20044;-87
2022/11/17 09:43:53;;;;;;;16.80;10.73;;;14.00;93.70;;;;;;5036580;28;20068;-83
2022/11/17 09:46:30;;;;;;;18.33;12.57;;;14.00;93.70;;;;;;5036025;28;20053;-86
2022/11/17 09:49:24;;;;;;;36.28;21.15;;;14.00;93.60;;;;;;5035605;28;20088;-86
2022/11/17 09:51:50;;;;;;;24.13;16.50;;;13.90;93.40;;;;;;5026192;28;20033;-86
2022/11/17 09:54:41;;;;;;;27.60;18.35;;;13.90;93.60;;;;;;5035422;28;20355;-86
2022/11/17 09:57:19;;;;;;;22.42;16.83;;;13.90;93.60;;;;;;5035758;28;20081;-86
2022/11/17 09:59:45;;;;;;;25.92;17.27;;;14.00;93.70;;;;;;5035154;28;20389;-86
2022/11/17 10:02:10;;;;;;;21.05;15.65;;;14.00;93.80;;;;;;5034962;28;20503;-86
2022/11/17 10:04:36;;;;;;;24.50;17.10;;;14.10;93.90;;;;;;5034401;28;20029;-85
2022/11/17 10:07:02;;;;;;;19.85;14.85;;;14.20;93.70;;;;;;5034902;28;20492;-85
2022/11/17 10:09:34;;;;;;;22.67;16.17;;;14.30;93.50;;;;;;5035141;28;20087;-86
2022/11/17 10:12:15;;;;;;;21.48;14.88;;;14.30;93.50;;;;;;5034715;28;20048;-86
2022/11/17 10:14:41;;;;;;;23.83;15.57;;;14.30;93.50;;;;;;5035139;28;20128;-86
2022/11/17 10:17:08;;;;;;;23.20;15.60;;;14.40;93.50;;;;;;5035446;28;20033;-86
2022/11/17 10:19:37;;;;;;;21.33;16.05;;;14.40;93.50;;;;;;5035556;28;20033;-86
2022/11/17 10:22:02;;;;;;;22.88;17.25;;;14.50;93.50;;;;;;5035365;28;20355;-84
2022/11/17 10:24:49;;;;;;;21.20;16.50;;;14.60;93.30;;;;;;5034881;28;20045;-86
2022/11/17 10:27:31;;;;;;;24.17;16.52;;;14.70;93.30;;;;;;5035097;28;20025;-87
2022/11/17 10:30:03;;;;;;;21.95;15.57;;;14.70;93.20;;;;;;5034976;28;20033;-87
2022/11/17 10:32:33;;;;;;;20.77;16.15;;;14.80;93.20;;;;;;5035145;28;20071;-87
2022/11/17 10:35:21;;;;;;;21.87;16.53;;;14.80;93.10;;;;;;5034794;28;20063;-84
2022/11/17 10:37:59;;;;;;;20.58;16.40;;;14.90;93.00;;;;;;5035347;28;20030;-85
2022/11/17 10:40:52;;;;;;;24.23;17.65;;;15.00;93.10;;;;;;5034475;28;20025;-85
2022/11/17 10:43:28;;;;;;;23.52;17.20;;;15.10;92.90;;;;;;5034065;28;20045;-86
2022/11/17 10:46:15;;;;;;;21.95;16.00;;;15.20;92.80;;;;;;5034493;28;20083;-85
2022/11/17 10:48:57;;;;;;;22.67;16.08;;;15.40;92.90;;;;;;5016846;28;20037;-86
2022/11/17 10:51:25;;;;;;;21.38;15.15;;;15.60;92.70;;;;;;5016563;28;20367;-85
2022/11/17 10:54:20;;;;;;;21.25;15.27;;;15.80;92.60;;;;;;5016767;28;20064;-85
2022/11/17 10:56:52;;;;;;;18.98;15.18;;;16.00;92.30;;;;;;5033772;28;20142;-86
2022/11/17 10:59:31;;;;;;;22.00;15.70;;;16.10;92.00;;;;;;5034661;28;20056;-86
2022/11/17 11:02:14;;;;;;;19.63;13.98;;;16.10;91.90;;;;;;5034224;28;20038;-86
2022/11/17 11:04:39;;;;;;;17.00;13.05;;;16.20;91.90;;;;;;5034536;28;20029;-86
2022/11/17 11:07:10;;;;;;;20.40;13.52;;;16.50;91.70;;;;;;5034144;28;20028;-86
2022/11/17 11:09:57;;;;;;;17.05;12.30;;;16.70;91.60;;;;;;5034345;28;20033;-85
2022/11/17 11:12:40;;;;;;;17.27;11.57;;;17.00;91.60;;;;;;5034172;28;20037;-85
2022/11/17 11:15:19;;;;;;;15.27;11.57;;;17.40;91.20;;;;;;5033768;28;20028;-85
2022/11/17 11:17:44;;;;;;;15.68;11.98;;;17.70;90.80;;;;;;5034010;28;20018;-86
2022/11/17 11:20:16;;;;;;;16.00;11.57;;;18.00;90.60;;;;;;5033999;28;20031;-86
2022/11/17 11:22:47;;;;;;;16.10;13.07;;;18.30;90.00;;;;;;5033942;28;20022;-85
2022/11/17 11:25:50;;;;;;;14.38;11.68;;;18.40;88.00;;;;;;5033523;28;20029;-85
2022/11/17 11:28:34;;;;;;;15.43;10.82;;;18.50;87.80;;;;;;5033792;28;20382;-85
2022/11/17 11:31:14;;;;;;;14.05;11.25;;;18.60;86.90;;;;;;5033717;28;20029;-86
2022/11/17 11:34:17;;;;;;;12.00;10.57;;;18.60;85.80;;;;;;5033583;28;20083;-85
2022/11/17 11:37:15;;;;;;;13.30;11.18;;;19.10;85.30;;;;;;5033768;28;20056;-86
2022/11/17 11:39:58;;;;;;;14.30;10.80;;;20.30;84.10;;;;;;5029253;28;20040;-87
2022/11/17 11:42:46;;;;;;;14.38;11.30;;;21.60;81.50;;;;;;5033874;28;20037;-86
2022/11/17 11:45:21;;;;;;;15.70;11.07;;;23.00;77.80;;;;;;5033710;28;20045;-87
2022/11/17 11:48:10;;;;;;;18.13;12.13;;;24.00;74.20;;;;;;5032982;28;20036;-87
2022/11/17 11:50:47;;;;;;;17.23;11.52;;;24.80;70.00;;;;;;5030728;28;20120;-88
2022/11/17 11:53:36;;;;;;;15.70;12.20;;;25.40;69.00;;;;;;5011460;28;20064;-88
2022/11/17 11:56:44;;;;;;;14.43;11.73;;;25.70;67.20;;;;;;5008598;28;20470;-87
2022/11/17 11:59:35;;;;;;;18.38;12.48;;;26.10;66.20;;;;;;5033544;28;20057;-88
2022/11/17 12:02:10;;;;;;;19.52;13.43;;;26.70;65.40;;;;;;5030563;28;20081;-88
2022/11/17 12:04:59;;;;;;;17.13;12.88;;;26.90;61.60;;;;;;5031904;28;20573;-87
2022/11/17 12:08:16;;;;;;;16.38;13.13;;;26.60;62.40;;;;;;5000558;28;20103;-89
2022/11/17 12:11:59;;;;;;;15.50;13.05;;;25.70;63.30;;;;;;4941186;29;20047;-89
2022/11/17 12:13:53;;;;;;;16.73;12.43;;;25.10;64.10;;;;;;4946046;29;20055;-88
2022/11/17 12:16:26;;;;;;;13.88;12.02;;;24.20;65.90;;;;;;5020547;28;20200;-82
2022/11/17 12:18:52;;;;;;;14.05;12.57;;;23.80;67.00;;;;;;5014061;28;20056;-82
2022/11/17 12:21:23;;;;;;;15.73;13.50;;;23.30;67.60;;;;;;5031309;28;20025;-82
2022/11/17 12:23:56;;;;;;;16.42;12.75;;;23.10;68.80;;;;;;5031133;28;20124;-82
2022/11/17 12:26:33;;;;;;;15.10;13.50;;;23.00;69.30;;;;;;5034213;28;20030;-81
2022/11/17 12:29:18;;;;;;;17.05;13.23;;;22.90;69.90;;;;;;5019271;28;20420;-81
2022/11/17 12:31:54;;;;;;;14.68;12.95;;;22.90;70.10;;;;;;5034854;28;20056;-81
2022/11/17 12:34:37;;;;;;;18.35;13.27;;;23.10;70.50;;;;;;5034154;28;20060;-81
2022/11/17 12:37:14;;;;;;;14.77;12.98;;;23.10;69.40;;;;;;5035034;28;20022;-82
2022/11/17 12:40:04;;;;;;;16.02;13.68;;;22.90;69.20;;;;;;5034619;28;20037;-82
2022/11/17 12:42:34;;;;;;;17.02;13.18;;;22.80;70.70;;;;;;5032419;28;20062;-80
2022/11/17 12:45:10;;;;;;;;;;;22.60;70.70;;;;;;5029045;28;20045;-81
2022/11/17 12:47:39;;;;;;;17.42;13.80;;;22.50;71.10;;;;;;5016151;28;20350;-80
2022/11/17 12:50:20;;;;;;;18.75;13.77;;;22.20;71.10;;;;;;5000522;28;20034;-80
2022/11/17 12:53:08;;;;;;;17.73;14.10;;;21.80;72.10;;;;;;5036186;28;20083;-80
2022/11/17 12:55:34;;;;;;;21.83;14.63;;;21.60;72.80;;;;;;5016790;28;20129;-80
2022/11/17 12:58:05;;;;;;;19.92;14.30;;;21.60;73.20;;;;;;5036648;28;20104;-86
2022/11/17 13:00:40;;;;;;;20.45;14.80;;;21.70;73.30;;;;;;5037111;28;20022;-87
2022/11/17 13:03:16;;;;;;;19.00;14.00;;;21.70;72.90;;;;;;5037291;28;20052;-87
2022/11/17 13:05:42;;;;;;;18.88;14.27;;;21.40;73.00;;;;;;5036001;28;20485;-87
2022/11/17 13:08:26;;;;;;;15.82;12.55;;;21.00;73.40;;;;;;5039696;28;20026;-87
2022/11/17 13:11:10;;;;;;;13.43;12.02;;;20.60;74.00;;;;;;5018815;28;20037;-86
2022/11/17 13:13:37;;;;;;;17.60;12.20;;;20.20;74.80;;;;;;5036631;28;20103;-85
2022/11/17 13:16:03;;;;;;;18.02;12.60;;;19.90;75.70;;;;;;5035643;28;20026;-86
2022/11/17 13:18:37;;;;;;;16.30;11.60;;;19.70;76.40;;;;;;5036435;28;20025;-86
2022/11/17 13:21:14;;;;;;;18.73;12.15;;;19.40;77.00;;;;;;5036413;28;20052;-86